sensor_id;sensor_type;location;lat;lon;timestamp;temperature;humidity
23748;DHT22;12054;53.662;10.126;2023-04-03T00:01:24;3.00;99.90
23748;DHT22;12054;53.662;10.126;2023-04-03T00:03:49;3.00;99.90
23748;DHT22;12054;53.662;10.126;2023-04-03T00:06:15;3.00;99.90
23748;DHT22;12054;53.662;10.126;2023-04-03T00:08:41;3.00;99.90
23748;DHT22;12054;53.662;10.126;2023-04-03T00:11:07;3.00;99.90
23748;DHT22;12054;53.662;10.126;2023-04-03T00:13:33;2.90;99.90
23748;DHT22;12054;53.662;10.126;2023-04-03T00:15:59;2.90;99.90
23748;DHT22;12054;53.662;10.126;2023-04-03T00:18:26;2.90;99.90
23748;DHT22;12054;53.662;10.126;2023-04-03T00:20:51;2.90;99.90
23748;DHT22;12054;53.662;10.126;2023-04-03T00:23:17;2.80;99.90
23748;DHT22;12054;53.662;10.126;2023-04-03T00:25:43;2.80;99.90
23748;DHT22;12054;53.662;10.126;2023-04-03T00:28:09;2.80;99.90
23748;DHT22;12054;53.662;10.126;2023-04-03T00:30:34;2.80;99.90
23748;DHT22;12054;53.662;10.126;2023-04-03T00:33:00;2.80;99.90
23748;DHT22;12054;53.662;10.126;2023-04-03T00:35:27;2.80;99.90
23748;DHT22;12054;53.662;10.126;2023-04-03T00:37:54;2.70;99.90
23748;DHT22;12054;53.662;10.126;2023-04-03T00:40:22;2.70;99.90
23748;DHT22;12054;53.662;10.126;2023-04-03T00:42:52;2.70;99.90
23748;DHT22;12054;53.662;10.126;2023-04-03T00:45:32;2.70;99.90
23748;DHT22;12054;53.662;10.126;2023-04-03T00:48:00;2.70;99.90
23748;DHT22;12054;53.662;10.126;2023-04-03T00:50:28;2.60;99.90
23748;DHT22;12054;53.662;10.126;2023-04-03T00:52:55;2.60;99.90
23748;DHT22;12054;53.662;10.126;2023-04-03T00:55:21;2.60;99.90
23748;DHT22;12054;53.662;10.126;2023-04-03T00:57:47;2.60;99.90
23748;DHT22;12054;53.662;10.126;2023-04-03T01:00:15;2.60;99.90
23748;DHT22;12054;53.662;10.126;2023-04-03T01:02:42;2.60;99.90
23748;DHT22;12054;53.662;10.126;2023-04-03T01:05:08;2.60;99.90
23748;DHT22;12054;53.662;10.126;2023-04-03T01:07:34;2.50;99.90
23748;DHT22;12054;53.662;10.126;2023-04-03T01:10:06;2.50;99.90
23748;DHT22;12054;53.662;10.126;2023-04-03T01:12:35;2.50;99.90
23748;DHT22;12054;53.662;10.126;2023-04-03T01:15:04;2.50;99.90
23748;DHT22;12054;53.662;10.126;2023-04-03T01:17:53;2.50;99.90
23748;DHT22;12054;53.662;10.126;2023-04-03T01:20:50;2.50;99.90
23748;DHT22;12054;53.662;10.126;2023-04-03T01:26:02;2.40;99.90
23748;DHT22;12054;53.662;10.126;2023-04-03T01:28:34;2.40;99.90
23748;DHT22;12054;53.662;10.126;2023-04-03T01:33:32;2.40;99.90
23748;DHT22;12054;53.662;10.126;2023-04-03T01:35:57;2.30;99.90
23748;DHT22;12054;53.662;10.126;2023-04-03T01:38:23;2.30;99.90
23748;DHT22;12054;53.662;10.126;2023-04-03T01:40:49;2.30;99.90
23748;DHT22;12054;53.662;10.126;2023-04-03T01:43:14;2.30;99.90
23748;DHT22;12054;53.662;10.126;2023-04-03T01:45:40;2.30;99.90
23748;DHT22;12054;53.662;10.126;2023-04-03T01:48:05;2.20;99.90
23748;DHT22;12054;53.662;10.126;2023-04-03T01:50:31;2.20;99.90
23748;DHT22;12054;53.662;10.126;2023-04-03T01:52:56;2.20;99.90
23748;DHT22;12054;53.662;10.126;2023-04-03T01:55:22;2.20;99.90
23748;DHT22;12054;53.662;10.126;2023-04-03T01:57:47;2.20;99.90
23748;DHT22;12054;53.662;10.126;2023-04-03T02:00:13;2.20;99.90
23748;DHT22;12054;53.662;10.126;2023-04-03T02:02:39;2.20;99.90
23748;DHT22;12054;53.662;10.126;2023-04-03T02:05:05;2.10;99.90
23748;DHT22;12054;53.662;10.126;2023-04-03T02:07:31;2.10;99.90
23748;DHT22;12054;53.662;10.126;2023-04-03T02:09:56;2.10;99.90
23748;DHT22;12054;53.662;10.126;2023-04-03T02:12:22;2.10;99.90
23748;DHT22;12054;53.662;10.126;2023-04-03T02:14:47;2.10;99.90
23748;DHT22;12054;53.662;10.126;2023-04-03T02:17:13;2.00;99.90
23748;DHT22;12054;53.662;10.126;2023-04-03T02:19:38;2.00;99.90
23748;DHT22;12054;53.662;10.126;2023-04-03T02:22:05;2.00;99.90
23748;DHT22;12054;53.662;10.126;2023-04-03T02:24:31;2.00;99.90
23748;DHT22;12054;53.662;10.126;2023-04-03T02:26:56;2.00;99.90
23748;DHT22;12054;53.662;10.126;2023-04-03T02:29:22;2.00;99.90
23748;DHT22;12054;53.662;10.126;2023-04-03T02:31:48;1.90;99.90
23748;DHT22;12054;53.662;10.126;2023-04-03T02:34:14;1.90;99.90
23748;DHT22;12054;53.662;10.126;2023-04-03T02:36:40;1.90;99.90
23748;DHT22;12054;53.662;10.126;2023-04-03T02:39:05;1.90;99.90
23748;DHT22;12054;53.662;10.126;2023-04-03T02:41:31;1.90;99.90
23748;DHT22;12054;53.662;10.126;2023-04-03T02:44:06;1.90;99.90
23748;DHT22;12054;53.662;10.126;2023-04-03T02:46:34;1.90;99.90
23748;DHT22;12054;53.662;10.126;2023-04-03T02:48:59;1.80;99.90
23748;DHT22;12054;53.662;10.126;2023-04-03T02:51:25;1.80;99.90
23748;DHT22;12054;53.662;10.126;2023-04-03T02:53:50;1.80;99.90
23748;DHT22;12054;53.662;10.126;2023-04-03T02:56:16;1.80;99.90
23748;DHT22;12054;53.662;10.126;2023-04-03T02:58:44;1.80;99.90
23748;DHT22;12054;53.662;10.126;2023-04-03T03:01:09;1.80;99.90
23748;DHT22;12054;53.662;10.126;2023-04-03T03:03:35;1.80;99.90
23748;DHT22;12054;53.662;10.126;2023-04-03T03:06:02;1.80;99.90
23748;DHT22;12054;53.662;10.126;2023-04-03T03:08:28;1.70;99.90
23748;DHT22;12054;53.662;10.126;2023-04-03T03:10:54;1.70;99.90
23748;DHT22;12054;53.662;10.126;2023-04-03T03:13:19;1.70;99.90
23748;DHT22;12054;53.662;10.126;2023-04-03T03:15:45;1.70;99.90
23748;DHT22;12054;53.662;10.126;2023-04-03T03:18:10;1.70;99.90
23748;DHT22;12054;53.662;10.126;2023-04-03T03:20:36;1.70;99.90
23748;DHT22;12054;53.662;10.126;2023-04-03T03:23:01;1.70;99.90
23748;DHT22;12054;53.662;10.126;2023-04-03T03:25:27;1.70;99.90
23748;DHT22;12054;53.662;10.126;2023-04-03T03:27:52;1.60;99.90
23748;DHT22;12054;53.662;10.126;2023-04-03T03:30:18;1.60;99.90
23748;DHT22;12054;53.662;10.126;2023-04-03T03:32:43;1.60;99.90
23748;DHT22;12054;53.662;10.126;2023-04-03T03:35:09;1.60;99.90
23748;DHT22;12054;53.662;10.126;2023-04-03T03:37:34;1.60;99.90
23748;DHT22;12054;53.662;10.126;2023-04-03T03:40:00;1.50;99.90
23748;DHT22;12054;53.662;10.126;2023-04-03T03:42:26;1.60;99.90
23748;DHT22;12054;53.662;10.126;2023-04-03T03:44:51;1.50;99.90
23748;DHT22;12054;53.662;10.126;2023-04-03T03:47:17;1.50;99.90
23748;DHT22;12054;53.662;10.126;2023-04-03T03:49:43;1.50;99.90
23748;DHT22;12054;53.662;10.126;2023-04-03T03:52:09;1.50;99.90
23748;DHT22;12054;53.662;10.126;2023-04-03T03:54:36;1.50;99.90
23748;DHT22;12054;53.662;10.126;2023-04-03T03:57:02;1.50;99.90
23748;DHT22;12054;53.662;10.126;2023-04-03T03:59:28;1.50;99.90
23748;DHT22;12054;53.662;10.126;2023-04-03T04:01:53;1.40;99.90
23748;DHT22;12054;53.662;10.126;2023-04-03T04:04:19;1.40;99.90
23748;DHT22;12054;53.662;10.126;2023-04-03T04:06:45;1.40;99.90
23748;DHT22;12054;53.662;10.126;2023-04-03T04:09:11;1.40;99.90
23748;DHT22;12054;53.662;10.126;2023-04-03T04:11:36;1.40;99.90
23748;DHT22;12054;53.662;10.126;2023-04-03T04:14:02;1.40;99.90
23748;DHT22;12054;53.662;10.126;2023-04-03T04:16:27;1.40;99.90
23748;DHT22;12054;53.662;10.126;2023-04-03T04:18:53;1.40;99.90
23748;DHT22;12054;53.662;10.126;2023-04-03T04:21:18;1.30;99.90
23748;DHT22;12054;53.662;10.126;2023-04-03T04:23:44;1.30;99.90
23748;DHT22;12054;53.662;10.126;2023-04-03T04:26:10;1.30;99.90
23748;DHT22;12054;53.662;10.126;2023-04-03T04:28:35;1.30;99.90
23748;DHT22;12054;53.662;10.126;2023-04-03T04:31:01;1.30;99.90
23748;DHT22;12054;53.662;10.126;2023-04-03T04:33:26;1.20;99.90
23748;DHT22;12054;53.662;10.126;2023-04-03T04:35:52;1.20;99.90
23748;DHT22;12054;53.662;10.126;2023-04-03T04:38:17;1.20;99.90
23748;DHT22;12054;53.662;10.126;2023-04-03T04:40:43;1.20;99.90
23748;DHT22;12054;53.662;10.126;2023-04-03T04:43:08;1.20;99.90
23748;DHT22;12054;53.662;10.126;2023-04-03T04:45:36;1.20;99.90
23748;DHT22;12054;53.662;10.126;2023-04-03T04:48:01;1.20;99.90
23748;DHT22;12054;53.662;10.126;2023-04-03T04:50:27;1.20;99.90
23748;DHT22;12054;53.662;10.126;2023-04-03T04:52:52;1.20;99.90
23748;DHT22;12054;53.662;10.126;2023-04-03T04:55:17;1.10;99.90
23748;DHT22;12054;53.662;10.126;2023-04-03T04:57:43;1.10;99.90
23748;DHT22;12054;53.662;10.126;2023-04-03T05:00:09;1.10;99.90
23748;DHT22;12054;53.662;10.126;2023-04-03T05:02:35;1.10;99.90
23748;DHT22;12054;53.662;10.126;2023-04-03T05:05:00;1.10;99.90
23748;DHT22;12054;53.662;10.126;2023-04-03T05:07:26;1.10;99.90
23748;DHT22;12054;53.662;10.126;2023-04-03T05:09:51;1.10;99.90
23748;DHT22;12054;53.662;10.126;2023-04-03T05:12:17;1.10;99.90
23748;DHT22;12054;53.662;10.126;2023-04-03T05:14:44;1.10;99.90
23748;DHT22;12054;53.662;10.126;2023-04-03T05:17:12;1.10;99.90
23748;DHT22;12054;53.662;10.126;2023-04-03T05:19:37;1.10;99.90
23748;DHT22;12054;53.662;10.126;2023-04-03T05:22:03;1.20;99.90
23748;DHT22;12054;53.662;10.126;2023-04-03T05:24:28;1.20;99.90
23748;DHT22;12054;53.662;10.126;2023-04-03T05:26:54;1.20;99.90
23748;DHT22;12054;53.662;10.126;2023-04-03T05:29:20;1.20;99.90
23748;DHT22;12054;53.662;10.126;2023-04-03T05:31:45;1.20;99.90
23748;DHT22;12054;53.662;10.126;2023-04-03T05:34:11;1.30;99.90
23748;DHT22;12054;53.662;10.126;2023-04-03T05:36:36;1.30;99.90
23748;DHT22;12054;53.662;10.126;2023-04-03T05:39:02;1.40;99.90
23748;DHT22;12054;53.662;10.126;2023-04-03T05:41:29;1.50;99.90
23748;DHT22;12054;53.662;10.126;2023-04-03T05:43:54;1.50;99.90
23748;DHT22;12054;53.662;10.126;2023-04-03T05:46:20;1.50;99.90
23748;DHT22;12054;53.662;10.126;2023-04-03T05:48:46;1.60;99.90
23748;DHT22;12054;53.662;10.126;2023-04-03T05:51:20;1.60;99.90
23748;DHT22;12054;53.662;10.126;2023-04-03T05:53:47;1.70;99.90
23748;DHT22;12054;53.662;10.126;2023-04-03T05:56:13;1.70;99.90
23748;DHT22;12054;53.662;10.126;2023-04-03T05:58:39;1.70;99.90
23748;DHT22;12054;53.662;10.126;2023-04-03T06:01:05;1.80;99.90
23748;DHT22;12054;53.662;10.126;2023-04-03T06:03:31;1.80;99.90
23748;DHT22;12054;53.662;10.126;2023-04-03T06:05:57;1.80;99.90
23748;DHT22;12054;53.662;10.126;2023-04-03T06:08:22;1.90;99.90
23748;DHT22;12054;53.662;10.126;2023-04-03T06:10:49;1.90;99.90
23748;DHT22;12054;53.662;10.126;2023-04-03T06:13:15;1.90;99.90
23748;DHT22;12054;53.662;10.126;2023-04-03T06:15:41;1.90;99.90
23748;DHT22;12054;53.662;10.126;2023-04-03T06:18:07;2.00;99.90
23748;DHT22;12054;53.662;10.126;2023-04-03T06:20:33;2.00;99.90
23748;DHT22;12054;53.662;10.126;2023-04-03T06:22:59;2.10;99.90
23748;DHT22;12054;53.662;10.126;2023-04-03T06:25:24;2.10;99.90
23748;DHT22;12054;53.662;10.126;2023-04-03T06:27:50;2.10;99.90
23748;DHT22;12054;53.662;10.126;2023-04-03T06:30:16;2.10;99.90
23748;DHT22;12054;53.662;10.126;2023-04-03T06:32:41;2.20;99.90
23748;DHT22;12054;53.662;10.126;2023-04-03T06:35:08;2.20;99.90
23748;DHT22;12054;53.662;10.126;2023-04-03T06:37:34;2.20;99.90
23748;DHT22;12054;53.662;10.126;2023-04-03T06:40:00;2.30;99.90
23748;DHT22;12054;53.662;10.126;2023-04-03T06:42:26;2.30;99.90
23748;DHT22;12054;53.662;10.126;2023-04-03T06:44:51;2.40;99.90
23748;DHT22;12054;53.662;10.126;2023-04-03T06:47:17;2.40;99.90
23748;DHT22;12054;53.662;10.126;2023-04-03T06:49:44;2.40;99.90
23748;DHT22;12054;53.662;10.126;2023-04-03T06:52:10;2.50;99.90
23748;DHT22;12054;53.662;10.126;2023-04-03T06:54:37;2.50;99.90
23748;DHT22;12054;53.662;10.126;2023-04-03T06:57:03;2.60;99.90
23748;DHT22;12054;53.662;10.126;2023-04-03T06:59:29;2.70;99.90
23748;DHT22;12054;53.662;10.126;2023-04-03T07:01:54;2.70;99.90
23748;DHT22;12054;53.662;10.126;2023-04-03T07:04:20;2.80;99.90
23748;DHT22;12054;53.662;10.126;2023-04-03T07:06:46;2.80;99.90
23748;DHT22;12054;53.662;10.126;2023-04-03T07:09:13;3.00;99.90
23748;DHT22;12054;53.662;10.126;2023-04-03T07:11:39;3.10;99.90
23748;DHT22;12054;53.662;10.126;2023-04-03T07:14:05;3.20;99.90
23748;DHT22;12054;53.662;10.126;2023-04-03T07:16:31;3.40;99.90
23748;DHT22;12054;53.662;10.126;2023-04-03T07:18:57;3.60;99.90
23748;DHT22;12054;53.662;10.126;2023-04-03T07:21:23;3.80;99.90
23748;DHT22;12054;53.662;10.126;2023-04-03T07:23:49;4.00;99.90
23748;DHT22;12054;53.662;10.126;2023-04-03T07:26:14;4.20;99.90
23748;DHT22;12054;53.662;10.126;2023-04-03T07:28:40;4.40;99.90
23748;DHT22;12054;53.662;10.126;2023-04-03T07:31:09;4.50;99.90
23748;DHT22;12054;53.662;10.126;2023-04-03T07:33:36;4.70;99.90
23748;DHT22;12054;53.662;10.126;2023-04-03T07:36:03;4.90;99.90
23748;DHT22;12054;53.662;10.126;2023-04-03T07:38:28;5.00;99.90
23748;DHT22;12054;53.662;10.126;2023-04-03T07:40:54;5.10;99.90
23748;DHT22;12054;53.662;10.126;2023-04-03T07:43:21;5.20;99.90
23748;DHT22;12054;53.662;10.126;2023-04-03T07:45:47;5.40;99.90
23748;DHT22;12054;53.662;10.126;2023-04-03T07:48:16;5.60;99.90
23748;DHT22;12054;53.662;10.126;2023-04-03T07:50:43;5.90;99.90
23748;DHT22;12054;53.662;10.126;2023-04-03T07:53:09;6.10;99.90
23748;DHT22;12054;53.662;10.126;2023-04-03T07:55:35;6.20;99.90
23748;DHT22;12054;53.662;10.126;2023-04-03T07:58:08;6.30;99.90
23748;DHT22;12054;53.662;10.126;2023-04-03T08:00:35;6.30;99.90
23748;DHT22;12054;53.662;10.126;2023-04-03T08:03:00;6.40;99.90
23748;DHT22;12054;53.662;10.126;2023-04-03T08:05:26;6.50;99.90
23748;DHT22;12054;53.662;10.126;2023-04-03T08:07:52;6.60;99.90
23748;DHT22;12054;53.662;10.126;2023-04-03T08:10:17;6.70;99.90
23748;DHT22;12054;53.662;10.126;2023-04-03T08:12:46;6.90;99.90
23748;DHT22;12054;53.662;10.126;2023-04-03T08:15:12;7.00;99.90
23748;DHT22;12054;53.662;10.126;2023-04-03T08:17:37;7.20;99.90
23748;DHT22;12054;53.662;10.126;2023-04-03T08:20:05;7.30;99.90
23748;DHT22;12054;53.662;10.126;2023-04-03T08:22:32;7.30;99.90
23748;DHT22;12054;53.662;10.126;2023-04-03T08:24:57;7.40;99.90
23748;DHT22;12054;53.662;10.126;2023-04-03T08:27:23;7.50;99.90
23748;DHT22;12054;53.662;10.126;2023-04-03T08:29:48;7.60;99.90
23748;DHT22;12054;53.662;10.126;2023-04-03T08:32:14;7.60;99.90
23748;DHT22;12054;53.662;10.126;2023-04-03T08:34:40;7.60;99.90
23748;DHT22;12054;53.662;10.126;2023-04-03T08:37:08;7.60;99.90
23748;DHT22;12054;53.662;10.126;2023-04-03T08:39:34;7.60;99.90
23748;DHT22;12054;53.662;10.126;2023-04-03T08:42:05;7.70;99.90
23748;DHT22;12054;53.662;10.126;2023-04-03T08:44:55;7.80;99.90
23748;DHT22;12054;53.662;10.126;2023-04-03T08:47:47;7.90;99.90
23748;DHT22;12054;53.662;10.126;2023-04-03T08:50:19;7.80;99.90
23748;DHT22;12054;53.662;10.126;2023-04-03T08:52:58;7.90;99.90
23748;DHT22;12054;53.662;10.126;2023-04-03T08:55:43;7.90;99.90
23748;DHT22;12054;53.662;10.126;2023-04-03T09:01:38;8.00;99.90
23748;DHT22;12054;53.662;10.126;2023-04-03T09:04:14;8.00;99.90
23748;DHT22;12054;53.662;10.126;2023-04-03T09:06:43;8.00;99.90
23748;DHT22;12054;53.662;10.126;2023-04-03T09:09:15;8.00;99.90
23748;DHT22;12054;53.662;10.126;2023-04-03T09:12:21;8.00;99.90
23748;DHT22;12054;53.662;10.126;2023-04-03T09:18:12;8.10;99.90
23748;DHT22;12054;53.662;10.126;2023-04-03T09:23:50;8.20;99.90
23748;DHT22;12054;53.662;10.126;2023-04-03T09:26:31;8.20;98.70
23748;DHT22;12054;53.662;10.126;2023-04-03T09:29:04;8.30;99.40
23748;DHT22;12054;53.662;10.126;2023-04-03T09:31:40;8.30;99.20
23748;DHT22;12054;53.662;10.126;2023-04-03T09:34:23;8.40;99.00
23748;DHT22;12054;53.662;10.126;2023-04-03T09:36:52;8.40;98.20
23748;DHT22;12054;53.662;10.126;2023-04-03T09:39:27;8.40;97.90
23748;DHT22;12054;53.662;10.126;2023-04-03T09:42:02;8.50;97.40
23748;DHT22;12054;53.662;10.126;2023-04-03T09:44:34;8.70;97.40
23748;DHT22;12054;53.662;10.126;2023-04-03T09:47:26;8.70;96.90
23748;DHT22;12054;53.662;10.126;2023-04-03T09:50:28;8.70;95.90
23748;DHT22;12054;53.662;10.126;2023-04-03T09:52:54;8.80;93.90
23748;DHT22;12054;53.662;10.126;2023-04-03T09:55:22;8.80;94.40
23748;DHT22;12054;53.662;10.126;2023-04-03T09:57:53;8.80;94.80
23748;DHT22;12054;53.662;10.126;2023-04-03T10:00:39;8.90;95.10
23748;DHT22;12054;53.662;10.126;2023-04-03T10:03:08;9.00;94.80
23748;DHT22;12054;53.662;10.126;2023-04-03T10:05:47;9.10;94.30
23748;DHT22;12054;53.662;10.126;2023-04-03T10:10:42;9.20;94.00
23748;DHT22;12054;53.662;10.126;2023-04-03T10:13:12;9.30;93.50
23748;DHT22;12054;53.662;10.126;2023-04-03T10:15:54;9.40;92.40
23748;DHT22;12054;53.662;10.126;2023-04-03T10:18:29;9.50;92.00
23748;DHT22;12054;53.662;10.126;2023-04-03T10:21:02;9.50;92.40
23748;DHT22;12054;53.662;10.126;2023-04-03T10:23:37;9.50;92.90
23748;DHT22;12054;53.662;10.126;2023-04-03T10:31:29;9.60;92.70
23748;DHT22;12054;53.662;10.126;2023-04-03T10:34:21;9.50;93.00
23748;DHT22;12054;53.662;10.126;2023-04-03T10:37:14;9.50;93.10
23748;DHT22;12054;53.662;10.126;2023-04-03T10:40:05;9.50;93.10
23748;DHT22;12054;53.662;10.126;2023-04-03T10:42:48;9.40;93.30
23748;DHT22;12054;53.662;10.126;2023-04-03T10:48:07;9.30;93.40
23748;DHT22;12054;53.662;10.126;2023-04-03T10:50:38;9.30;93.80
23748;DHT22;12054;53.662;10.126;2023-04-03T10:53:18;9.20;93.90
23748;DHT22;12054;53.662;10.126;2023-04-03T10:58:40;9.10;94.00
23748;DHT22;12054;53.662;10.126;2023-04-03T11:01:23;9.10;94.00
23748;DHT22;12054;53.662;10.126;2023-04-03T11:03:53;9.00;94.00
23748;DHT22;12054;53.662;10.126;2023-04-03T11:06:21;8.90;93.60
23748;DHT22;12054;53.662;10.126;2023-04-03T11:08:53;8.90;93.50
23748;DHT22;12054;53.662;10.126;2023-04-03T11:11:25;8.90;93.30
23748;DHT22;12054;53.662;10.126;2023-04-03T11:16:39;9.00;93.20
23748;DHT22;12054;53.662;10.126;2023-04-03T11:19:20;9.00;93.30
23748;DHT22;12054;53.662;10.126;2023-04-03T11:22:08;9.00;93.70
23748;DHT22;12054;53.662;10.126;2023-04-03T11:24:38;8.90;93.20
23748;DHT22;12054;53.662;10.126;2023-04-03T11:27:05;8.80;92.30
23748;DHT22;12054;53.662;10.126;2023-04-03T11:29:38;8.80;91.70
23748;DHT22;12054;53.662;10.126;2023-04-03T11:32:37;8.80;91.10
23748;DHT22;12054;53.662;10.126;2023-04-03T11:35:05;8.80;91.00
23748;DHT22;12054;53.662;10.126;2023-04-03T11:37:35;8.80;90.70
23748;DHT22;12054;53.662;10.126;2023-04-03T11:40:25;8.90;90.20
23748;DHT22;12054;53.662;10.126;2023-04-03T11:43:40;8.90;91.50
23748;DHT22;12054;53.662;10.126;2023-04-03T11:46:04;9.00;90.90
23748;DHT22;12054;53.662;10.126;2023-04-03T11:53:42;9.10;92.00
23748;DHT22;12054;53.662;10.126;2023-04-03T12:01:49;9.20;91.60
23748;DHT22;12054;53.662;10.126;2023-04-03T12:04:17;9.30;92.40
23748;DHT22;12054;53.662;10.126;2023-04-03T12:11:48;9.20;91.00
23748;DHT22;12054;53.662;10.126;2023-04-03T12:14:15;9.10;90.40
23748;DHT22;12054;53.662;10.126;2023-04-03T12:16:45;9.00;90.70
23748;DHT22;12054;53.662;10.126;2023-04-03T12:29:37;9.00;90.90
23748;DHT22;12054;53.662;10.126;2023-04-03T12:32:26;9.00;90.10
23748;DHT22;12054;53.662;10.126;2023-04-03T12:51:38;9.00;89.40
23748;DHT22;12054;53.662;10.126;2023-04-03T12:54:23;9.10;90.40
23748;DHT22;12054;53.662;10.126;2023-04-03T12:56:51;9.10;90.70
23748;DHT22;12054;53.662;10.126;2023-04-03T12:59:24;9.10;90.00
23748;DHT22;12054;53.662;10.126;2023-04-03T13:01:59;9.20;90.30
23748;DHT22;12054;53.662;10.126;2023-04-03T13:04:27;9.20;88.60
23748;DHT22;12054;53.662;10.126;2023-04-03T13:06:53;9.30;88.60
23748;DHT22;12054;53.662;10.126;2023-04-03T13:09:30;9.30;89.20
23748;DHT22;12054;53.662;10.126;2023-04-03T13:12:02;9.40;88.10
23748;DHT22;12054;53.662;10.126;2023-04-03T13:14:29;9.40;88.00
23748;DHT22;12054;53.662;10.126;2023-04-03T13:17:14;9.40;90.00
23748;DHT22;12054;53.662;10.126;2023-04-03T13:19:40;9.30;89.30
23748;DHT22;12054;53.662;10.126;2023-04-03T13:22:29;9.20;88.20
23748;DHT22;12054;53.662;10.126;2023-04-03T13:24:59;9.20;88.10
23748;DHT22;12054;53.662;10.126;2023-04-03T13:27:30;9.20;88.70
23748;DHT22;12054;53.662;10.126;2023-04-03T13:29:58;9.20;88.70
23748;DHT22;12054;53.662;10.126;2023-04-03T13:32:26;9.30;88.10
23748;DHT22;12054;53.662;10.126;2023-04-03T13:34:52;9.30;85.70
23748;DHT22;12054;53.662;10.126;2023-04-03T13:37:33;9.30;85.60
23748;DHT22;12054;53.662;10.126;2023-04-03T13:40:00;9.30;86.90
23748;DHT22;12054;53.662;10.126;2023-04-03T13:42:30;9.30;87.30
23748;DHT22;12054;53.662;10.126;2023-04-03T13:45:23;9.30;88.70
23748;DHT22;12054;53.662;10.126;2023-04-03T13:47:53;9.40;88.30
23748;DHT22;12054;53.662;10.126;2023-04-03T13:50:21;9.40;86.60
23748;DHT22;12054;53.662;10.126;2023-04-03T13:55:29;9.30;84.80
23748;DHT22;12054;53.662;10.126;2023-04-03T13:58:00;9.30;83.10
23748;DHT22;12054;53.662;10.126;2023-04-03T14:03:03;9.30;84.30
23748;DHT22;12054;53.662;10.126;2023-04-03T14:05:37;9.30;82.50
23748;DHT22;12054;53.662;10.126;2023-04-03T14:08:02;9.30;84.20
23748;DHT22;12054;53.662;10.126;2023-04-03T14:10:28;9.30;84.20
23748;DHT22;12054;53.662;10.126;2023-04-03T14:12:53;9.30;84.70
23748;DHT22;12054;53.662;10.126;2023-04-03T14:15:26;9.30;84.90
23748;DHT22;12054;53.662;10.126;2023-04-03T14:17:53;9.30;85.30
23748;DHT22;12054;53.662;10.126;2023-04-03T14:20:20;9.20;84.70
23748;DHT22;12054;53.662;10.126;2023-04-03T14:22:47;9.20;84.50
23748;DHT22;12054;53.662;10.126;2023-04-03T14:25:15;9.20;84.20
23748;DHT22;12054;53.662;10.126;2023-04-03T14:27:42;9.20;83.50
23748;DHT22;12054;53.662;10.126;2023-04-03T14:30:13;9.10;84.30
23748;DHT22;12054;53.662;10.126;2023-04-03T14:32:39;9.10;83.00
23748;DHT22;12054;53.662;10.126;2023-04-03T14:35:06;9.00;83.40
23748;DHT22;12054;53.662;10.126;2023-04-03T14:37:32;9.00;84.10
23748;DHT22;12054;53.662;10.126;2023-04-03T14:39:59;9.00;85.50
23748;DHT22;12054;53.662;10.126;2023-04-03T14:42:31;9.00;87.00
23748;DHT22;12054;53.662;10.126;2023-04-03T14:44:59;9.00;87.70
23748;DHT22;12054;53.662;10.126;2023-04-03T14:47:27;8.90;86.00
23748;DHT22;12054;53.662;10.126;2023-04-03T14:49:53;8.90;86.80
23748;DHT22;12054;53.662;10.126;2023-04-03T14:52:23;8.90;86.70
23748;DHT22;12054;53.662;10.126;2023-04-03T14:54:50;8.90;87.80
23748;DHT22;12054;53.662;10.126;2023-04-03T14:57:17;8.90;87.70
23748;DHT22;12054;53.662;10.126;2023-04-03T14:59:44;8.90;88.80
23748;DHT22;12054;53.662;10.126;2023-04-03T15:02:26;8.90;89.80
23748;DHT22;12054;53.662;10.126;2023-04-03T15:04:53;8.90;89.30
23748;DHT22;12054;53.662;10.126;2023-04-03T15:07:18;8.80;88.20
23748;DHT22;12054;53.662;10.126;2023-04-03T15:09:44;8.70;87.80
23748;DHT22;12054;53.662;10.126;2023-04-03T15:12:09;8.70;87.80
23748;DHT22;12054;53.662;10.126;2023-04-03T15:14:36;8.70;87.80
23748;DHT22;12054;53.662;10.126;2023-04-03T15:17:01;8.70;87.50
23748;DHT22;12054;53.662;10.126;2023-04-03T15:19:28;8.70;87.50
23748;DHT22;12054;53.662;10.126;2023-04-03T15:21:53;8.70;87.70
23748;DHT22;12054;53.662;10.126;2023-04-03T15:24:19;8.80;87.80
23748;DHT22;12054;53.662;10.126;2023-04-03T15:26:44;8.70;89.60
23748;DHT22;12054;53.662;10.126;2023-04-03T15:29:10;8.70;89.20
23748;DHT22;12054;53.662;10.126;2023-04-03T15:31:35;8.60;88.80
23748;DHT22;12054;53.662;10.126;2023-04-03T15:34:02;8.50;87.30
23748;DHT22;12054;53.662;10.126;2023-04-03T15:36:29;8.40;87.80
23748;DHT22;12054;53.662;10.126;2023-04-03T15:38:54;8.30;88.40
23748;DHT22;12054;53.662;10.126;2023-04-03T15:41:20;8.30;89.50
23748;DHT22;12054;53.662;10.126;2023-04-03T15:43:46;8.30;89.80
23748;DHT22;12054;53.662;10.126;2023-04-03T15:46:15;8.30;89.70
23748;DHT22;12054;53.662;10.126;2023-04-03T15:48:41;8.20;90.00
23748;DHT22;12054;53.662;10.126;2023-04-03T15:51:06;8.30;90.00
23748;DHT22;12054;53.662;10.126;2023-04-03T15:53:32;8.40;89.80
23748;DHT22;12054;53.662;10.126;2023-04-03T15:55:57;8.30;89.70
23748;DHT22;12054;53.662;10.126;2023-04-03T15:58:23;8.20;90.10
23748;DHT22;12054;53.662;10.126;2023-04-03T16:00:49;8.20;90.10
23748;DHT22;12054;53.662;10.126;2023-04-03T16:03:16;8.10;90.10
23748;DHT22;12054;53.662;10.126;2023-04-03T16:05:44;8.10;90.10
23748;DHT22;12054;53.662;10.126;2023-04-03T16:08:10;8.10;90.90
23748;DHT22;12054;53.662;10.126;2023-04-03T16:10:37;8.00;90.90
23748;DHT22;12054;53.662;10.126;2023-04-03T16:13:03;8.00;91.40
23748;DHT22;12054;53.662;10.126;2023-04-03T16:15:30;7.90;91.50
23748;DHT22;12054;53.662;10.126;2023-04-03T16:17:57;7.80;91.70
23748;DHT22;12054;53.662;10.126;2023-04-03T16:20:23;7.70;91.80
23748;DHT22;12054;53.662;10.126;2023-04-03T16:22:49;7.60;92.00
23748;DHT22;12054;53.662;10.126;2023-04-03T16:25:15;7.60;92.00
23748;DHT22;12054;53.662;10.126;2023-04-03T16:27:40;7.50;92.30
23748;DHT22;12054;53.662;10.126;2023-04-03T16:30:08;7.50;92.50
23748;DHT22;12054;53.662;10.126;2023-04-03T16:32:35;7.50;92.60
23748;DHT22;12054;53.662;10.126;2023-04-03T16:35:02;7.40;92.50
23748;DHT22;12054;53.662;10.126;2023-04-03T16:37:29;7.30;92.70
23748;DHT22;12054;53.662;10.126;2023-04-03T16:39:55;7.30;92.60
23748;DHT22;12054;53.662;10.126;2023-04-03T16:42:22;7.30;92.80
23748;DHT22;12054;53.662;10.126;2023-04-03T16:44:47;7.30;93.40
23748;DHT22;12054;53.662;10.126;2023-04-03T16:47:13;7.20;93.40
23748;DHT22;12054;53.662;10.126;2023-04-03T16:49:39;7.20;93.30
23748;DHT22;12054;53.662;10.126;2023-04-03T16:52:05;7.20;93.30
23748;DHT22;12054;53.662;10.126;2023-04-03T16:54:31;7.10;93.40
23748;DHT22;12054;53.662;10.126;2023-04-03T16:56:57;7.10;93.40
23748;DHT22;12054;53.662;10.126;2023-04-03T16:59:25;7.10;93.50